sensor_id;sensor_type;location;lat;lon;timestamp;temperature;humidity
40670;DHT22;26355;45.528;9.234;2022-09-09T00:03:59;25.50;99.90
40670;DHT22;26355;45.528;9.234;2022-09-09T00:06:31;25.40;99.90
40670;DHT22;26355;45.528;9.234;2022-09-09T00:09:01;25.40;99.90
40670;DHT22;26355;45.528;9.234;2022-09-09T00:14:25;25.40;99.90
40670;DHT22;26355;45.528;9.234;2022-09-09T00:16:55;25.40;99.90
40670;DHT22;26355;45.528;9.234;2022-09-09T00:19:25;25.40;99.90
40670;DHT22;26355;45.528;9.234;2022-09-09T00:22:13;25.40;99.90
40670;DHT22;26355;45.528;9.234;2022-09-09T00:24:46;25.40;99.90
40670;DHT22;26355;45.528;9.234;2022-09-09T00:29:51;25.30;99.90
40670;DHT22;26355;45.528;9.234;2022-09-09T00:32:20;25.30;99.90
40670;DHT22;26355;45.528;9.234;2022-09-09T00:34:52;25.30;99.90
40670;DHT22;26355;45.528;9.234;2022-09-09T00:37:20;25.30;99.90
40670;DHT22;26355;45.528;9.234;2022-09-09T00:39:48;25.20;99.90
40670;DHT22;26355;45.528;9.234;2022-09-09T00:42:24;25.20;99.90
40670;DHT22;26355;45.528;9.234;2022-09-09T00:47:50;25.10;99.90
40670;DHT22;26355;45.528;9.234;2022-09-09T00:58:07;25.10;99.90
40670;DHT22;26355;45.528;9.234;2022-09-09T01:00:57;25.00;99.90
40670;DHT22;26355;45.528;9.234;2022-09-09T01:03:49;25.00;99.90
40670;DHT22;26355;45.528;9.234;2022-09-09T01:06:37;25.00;99.90
40670;DHT22;26355;45.528;9.234;2022-09-09T01:09:24;25.00;99.90
40670;DHT22;26355;45.528;9.234;2022-09-09T01:14:50;24.90;99.90
40670;DHT22;26355;45.528;9.234;2022-09-09T01:17:23;25.00;99.90
40670;DHT22;26355;45.528;9.234;2022-09-09T01:20:04;24.90;99.90
40670;DHT22;26355;45.528;9.234;2022-09-09T01:22:48;24.90;99.90
40670;DHT22;26355;45.528;9.234;2022-09-09T01:25:56;24.90;99.90
40670;DHT22;26355;45.528;9.234;2022-09-09T01:28:19;24.90;99.90
40670;DHT22;26355;45.528;9.234;2022-09-09T01:30:47;24.80;99.90
40670;DHT22;26355;45.528;9.234;2022-09-09T01:33:17;24.80;99.90
40670;DHT22;26355;45.528;9.234;2022-09-09T01:38:09;24.80;99.90
40670;DHT22;26355;45.528;9.234;2022-09-09T01:40:35;24.80;99.90
40670;DHT22;26355;45.528;9.234;2022-09-09T01:43:02;24.80;99.90
40670;DHT22;26355;45.528;9.234;2022-09-09T01:45:29;24.70;99.90
40670;DHT22;26355;45.528;9.234;2022-09-09T01:47:55;24.80;99.90
40670;DHT22;26355;45.528;9.234;2022-09-09T01:50:22;24.80;99.90
40670;DHT22;26355;45.528;9.234;2022-09-09T01:52:57;24.80;99.90
40670;DHT22;26355;45.528;9.234;2022-09-09T01:55:32;24.80;99.90
40670;DHT22;26355;45.528;9.234;2022-09-09T02:00:38;24.80;99.90
40670;DHT22;26355;45.528;9.234;2022-09-09T02:03:26;24.80;99.90
40670;DHT22;26355;45.528;9.234;2022-09-09T02:06:18;24.80;99.90
40670;DHT22;26355;45.528;9.234;2022-09-09T02:08:50;24.70;99.90
40670;DHT22;26355;45.528;9.234;2022-09-09T02:11:18;24.80;99.90
40670;DHT22;26355;45.528;9.234;2022-09-09T02:13:46;24.70;99.90
40670;DHT22;26355;45.528;9.234;2022-09-09T02:16:26;24.80;99.90
40670;DHT22;26355;45.528;9.234;2022-09-09T02:19:00;24.70;99.90
40670;DHT22;26355;45.528;9.234;2022-09-09T02:21:28;24.70;99.90
40670;DHT22;26355;45.528;9.234;2022-09-09T02:23:57;24.80;99.90
40670;DHT22;26355;45.528;9.234;2022-09-09T02:26:25;24.80;99.90
40670;DHT22;26355;45.528;9.234;2022-09-09T02:28:52;24.90;99.90
40670;DHT22;26355;45.528;9.234;2022-09-09T02:31:22;24.80;99.90
40670;DHT22;26355;45.528;9.234;2022-09-09T02:33:58;24.90;99.90
40670;DHT22;26355;45.528;9.234;2022-09-09T02:36:28;24.90;99.90
40670;DHT22;26355;45.528;9.234;2022-09-09T02:38:55;24.90;99.90
40670;DHT22;26355;45.528;9.234;2022-09-09T02:41:26;24.90;99.90
40670;DHT22;26355;45.528;9.234;2022-09-09T02:43:53;24.90;99.90
40670;DHT22;26355;45.528;9.234;2022-09-09T02:46:53;24.90;99.90
40670;DHT22;26355;45.528;9.234;2022-09-09T02:52:12;25.00;99.90
40670;DHT22;26355;45.528;9.234;2022-09-09T02:54:41;25.00;99.90
40670;DHT22;26355;45.528;9.234;2022-09-09T02:57:24;25.00;99.90
40670;DHT22;26355;45.528;9.234;2022-09-09T02:59:51;25.00;99.90
40670;DHT22;26355;45.528;9.234;2022-09-09T03:02:20;25.00;99.90
40670;DHT22;26355;45.528;9.234;2022-09-09T03:04:45;24.90;99.90
40670;DHT22;26355;45.528;9.234;2022-09-09T03:07:16;24.90;99.90
40670;DHT22;26355;45.528;9.234;2022-09-09T03:09:42;24.90;99.90
40670;DHT22;26355;45.528;9.234;2022-09-09T03:12:08;24.90;99.90
40670;DHT22;26355;45.528;9.234;2022-09-09T03:14:33;24.90;99.90
40670;DHT22;26355;45.528;9.234;2022-09-09T03:16:59;24.80;99.90
40670;DHT22;26355;45.528;9.234;2022-09-09T03:19:26;24.70;99.90
40670;DHT22;26355;45.528;9.234;2022-09-09T03:21:53;24.70;99.90
40670;DHT22;26355;45.528;9.234;2022-09-09T03:24:19;24.60;99.90
40670;DHT22;26355;45.528;9.234;2022-09-09T03:26:45;24.50;99.90
40670;DHT22;26355;45.528;9.234;2022-09-09T03:29:11;24.50;99.90
40670;DHT22;26355;45.528;9.234;2022-09-09T03:31:38;24.40;99.90
40670;DHT22;26355;45.528;9.234;2022-09-09T03:34:04;24.20;99.90
40670;DHT22;26355;45.528;9.234;2022-09-09T03:36:29;24.00;99.90
40670;DHT22;26355;45.528;9.234;2022-09-09T03:38:55;24.00;99.90
40670;DHT22;26355;45.528;9.234;2022-09-09T03:41:22;24.10;99.90
40670;DHT22;26355;45.528;9.234;2022-09-09T03:43:52;24.10;99.90
40670;DHT22;26355;45.528;9.234;2022-09-09T03:46:19;24.10;99.90
40670;DHT22;26355;45.528;9.234;2022-09-09T03:48:45;24.00;99.90
40670;DHT22;26355;45.528;9.234;2022-09-09T03:51:10;23.80;99.90
40670;DHT22;26355;45.528;9.234;2022-09-09T03:53:36;23.90;99.90
40670;DHT22;26355;45.528;9.234;2022-09-09T03:56:04;23.80;99.90
40670;DHT22;26355;45.528;9.234;2022-09-09T03:58:32;23.80;99.90
40670;DHT22;26355;45.528;9.234;2022-09-09T04:01:02;23.80;99.90
40670;DHT22;26355;45.528;9.234;2022-09-09T04:03:28;23.70;99.90
40670;DHT22;26355;45.528;9.234;2022-09-09T04:05:55;23.80;99.90
40670;DHT22;26355;45.528;9.234;2022-09-09T04:08:21;23.80;99.90
40670;DHT22;26355;45.528;9.234;2022-09-09T04:10:51;23.70;99.90
40670;DHT22;26355;45.528;9.234;2022-09-09T04:13:18;23.60;99.90
40670;DHT22;26355;45.528;9.234;2022-09-09T04:15:50;23.50;99.90
40670;DHT22;26355;45.528;9.234;2022-09-09T04:18:16;23.50;99.90
40670;DHT22;26355;45.528;9.234;2022-09-09T04:20:42;23.50;99.90
40670;DHT22;26355;45.528;9.234;2022-09-09T04:23:08;23.30;99.90
40670;DHT22;26355;45.528;9.234;2022-09-09T04:25:34;23.40;99.90
40670;DHT22;26355;45.528;9.234;2022-09-09T04:28:00;23.50;99.90
40670;DHT22;26355;45.528;9.234;2022-09-09T04:30:25;23.50;99.90
40670;DHT22;26355;45.528;9.234;2022-09-09T04:32:52;23.60;99.90
40670;DHT22;26355;45.528;9.234;2022-09-09T04:35:18;23.50;99.90
40670;DHT22;26355;45.528;9.234;2022-09-09T04:37:45;23.40;99.90
40670;DHT22;26355;45.528;9.234;2022-09-09T04:40:11;23.40;99.90
40670;DHT22;26355;45.528;9.234;2022-09-09T04:42:38;23.50;99.90
40670;DHT22;26355;45.528;9.234;2022-09-09T04:45:05;23.50;99.90
40670;DHT22;26355;45.528;9.234;2022-09-09T04:47:31;23.60;99.90
40670;DHT22;26355;45.528;9.234;2022-09-09T04:49:57;23.60;99.90
40670;DHT22;26355;45.528;9.234;2022-09-09T04:52:22;23.70;99.90
40670;DHT22;26355;45.528;9.234;2022-09-09T04:54:48;23.70;99.90
40670;DHT22;26355;45.528;9.234;2022-09-09T04:57:14;23.70;99.90
40670;DHT22;26355;45.528;9.234;2022-09-09T04:59:39;23.80;99.90
40670;DHT22;26355;45.528;9.234;2022-09-09T05:02:05;23.80;99.90
40670;DHT22;26355;45.528;9.234;2022-09-09T05:04:31;23.70;99.90
40670;DHT22;26355;45.528;9.234;2022-09-09T05:06:58;23.80;99.90
40670;DHT22;26355;45.528;9.234;2022-09-09T05:09:24;23.90;99.90
40670;DHT22;26355;45.528;9.234;2022-09-09T05:11:49;23.90;99.90
40670;DHT22;26355;45.528;9.234;2022-09-09T05:14:15;23.90;99.90
40670;DHT22;26355;45.528;9.234;2022-09-09T05:16:41;24.00;99.90
40670;DHT22;26355;45.528;9.234;2022-09-09T05:19:09;24.00;99.90
40670;DHT22;26355;45.528;9.234;2022-09-09T05:21:35;24.10;99.90
40670;DHT22;26355;45.528;9.234;2022-09-09T05:24:01;24.20;99.90
40670;DHT22;26355;45.528;9.234;2022-09-09T05:26:27;24.20;99.90
40670;DHT22;26355;45.528;9.234;2022-09-09T05:28:54;24.20;99.90
40670;DHT22;26355;45.528;9.234;2022-09-09T05:31:20;24.20;99.90
40670;DHT22;26355;45.528;9.234;2022-09-09T05:33:47;24.20;99.90
40670;DHT22;26355;45.528;9.234;2022-09-09T05:36:16;24.20;99.90
40670;DHT22;26355;45.528;9.234;2022-09-09T05:38:43;24.10;99.90
40670;DHT22;26355;45.528;9.234;2022-09-09T05:41:09;24.10;99.90
40670;DHT22;26355;45.528;9.234;2022-09-09T05:43:37;24.00;99.90
40670;DHT22;26355;45.528;9.234;2022-09-09T05:46:09;24.00;99.90
40670;DHT22;26355;45.528;9.234;2022-09-09T05:48:37;24.00;99.90
40670;DHT22;26355;45.528;9.234;2022-09-09T05:51:05;24.00;99.90
40670;DHT22;26355;45.528;9.234;2022-09-09T05:53:32;24.00;99.90
40670;DHT22;26355;45.528;9.234;2022-09-09T05:56:06;24.00;99.90
40670;DHT22;26355;45.528;9.234;2022-09-09T05:58:33;23.80;99.90
40670;DHT22;26355;45.528;9.234;2022-09-09T06:01:03;23.90;99.90
40670;DHT22;26355;45.528;9.234;2022-09-09T06:03:30;23.80;99.90
40670;DHT22;26355;45.528;9.234;2022-09-09T06:06:06;23.80;99.90
40670;DHT22;26355;45.528;9.234;2022-09-09T06:08:33;23.70;99.90
40670;DHT22;26355;45.528;9.234;2022-09-09T06:11:06;23.70;99.90
40670;DHT22;26355;45.528;9.234;2022-09-09T06:13:32;23.60;99.90
40670;DHT22;26355;45.528;9.234;2022-09-09T06:15:58;23.60;99.90
40670;DHT22;26355;45.528;9.234;2022-09-09T06:18:25;23.60;99.90
40670;DHT22;26355;45.528;9.234;2022-09-09T06:21:00;23.60;99.90
40670;DHT22;26355;45.528;9.234;2022-09-09T06:23:26;23.70;99.90
40670;DHT22;26355;45.528;9.234;2022-09-09T06:26:10;23.70;99.90
40670;DHT22;26355;45.528;9.234;2022-09-09T06:28:37;23.70;99.90
40670;DHT22;26355;45.528;9.234;2022-09-09T06:31:05;23.70;99.90
40670;DHT22;26355;45.528;9.234;2022-09-09T06:33:35;23.70;99.90
40670;DHT22;26355;45.528;9.234;2022-09-09T06:36:03;23.70;99.90
40670;DHT22;26355;45.528;9.234;2022-09-09T06:38:29;23.70;99.90
40670;DHT22;26355;45.528;9.234;2022-09-09T06:40:58;23.80;99.90
40670;DHT22;26355;45.528;9.234;2022-09-09T06:43:27;23.80;99.90
40670;DHT22;26355;45.528;9.234;2022-09-09T06:46:02;23.80;99.90
40670;DHT22;26355;45.528;9.234;2022-09-09T06:48:28;23.90;99.90
40670;DHT22;26355;45.528;9.234;2022-09-09T06:51:21;23.90;99.90
40670;DHT22;26355;45.528;9.234;2022-09-09T06:53:50;23.90;99.90
40670;DHT22;26355;45.528;9.234;2022-09-09T06:56:20;24.00;99.90
40670;DHT22;26355;45.528;9.234;2022-09-09T06:58:47;24.00;99.90
40670;DHT22;26355;45.528;9.234;2022-09-09T07:01:16;24.00;99.90
40670;DHT22;26355;45.528;9.234;2022-09-09T07:03:46;24.10;99.90
40670;DHT22;26355;45.528;9.234;2022-09-09T07:06:23;24.20;99.90
40670;DHT22;26355;45.528;9.234;2022-09-09T07:08:51;24.20;99.90
40670;DHT22;26355;45.528;9.234;2022-09-09T07:11:18;24.20;99.90
40670;DHT22;26355;45.528;9.234;2022-09-09T07:13:44;24.20;99.90
40670;DHT22;26355;45.528;9.234;2022-09-09T07:16:12;24.20;99.90
40670;DHT22;26355;45.528;9.234;2022-09-09T07:18:39;24.30;99.90
40670;DHT22;26355;45.528;9.234;2022-09-09T07:21:05;24.40;99.90
40670;DHT22;26355;45.528;9.234;2022-09-09T07:23:32;24.40;99.90
40670;DHT22;26355;45.528;9.234;2022-09-09T07:25:58;24.50;99.90
40670;DHT22;26355;45.528;9.234;2022-09-09T07:28:25;24.50;99.90
40670;DHT22;26355;45.528;9.234;2022-09-09T07:30:59;24.50;99.90
40670;DHT22;26355;45.528;9.234;2022-09-09T07:33:27;24.60;99.90
40670;DHT22;26355;45.528;9.234;2022-09-09T07:36:01;24.60;99.90
40670;DHT22;26355;45.528;9.234;2022-09-09T07:38:28;24.70;99.90
40670;DHT22;26355;45.528;9.234;2022-09-09T07:41:03;24.70;99.90
40670;DHT22;26355;45.528;9.234;2022-09-09T07:43:28;24.60;99.90
40670;DHT22;26355;45.528;9.234;2022-09-09T07:45:57;24.60;99.90
40670;DHT22;26355;45.528;9.234;2022-09-09T07:48:23;24.60;99.90
40670;DHT22;26355;45.528;9.234;2022-09-09T07:50:49;24.60;99.90
40670;DHT22;26355;45.528;9.234;2022-09-09T07:53:14;24.80;99.90
40670;DHT22;26355;45.528;9.234;2022-09-09T07:55:40;25.00;99.90
40670;DHT22;26355;45.528;9.234;2022-09-09T07:58:05;25.20;99.90
40670;DHT22;26355;45.528;9.234;2022-09-09T08:00:31;25.40;99.90
40670;DHT22;26355;45.528;9.234;2022-09-09T08:02:58;25.60;99.90
40670;DHT22;26355;45.528;9.234;2022-09-09T08:05:27;25.60;99.90
40670;DHT22;26355;45.528;9.234;2022-09-09T08:07:53;25.70;99.90
40670;DHT22;26355;45.528;9.234;2022-09-09T08:10:19;25.80;99.90
40670;DHT22;26355;45.528;9.234;2022-09-09T08:12:44;25.90;99.90
40670;DHT22;26355;45.528;9.234;2022-09-09T08:15:10;25.80;99.90
40670;DHT22;26355;45.528;9.234;2022-09-09T08:17:36;25.90;99.90
40670;DHT22;26355;45.528;9.234;2022-09-09T08:20:03;25.90;99.90
40670;DHT22;26355;45.528;9.234;2022-09-09T08:22:32;26.10;99.90
40670;DHT22;26355;45.528;9.234;2022-09-09T08:24:57;26.10;99.90
40670;DHT22;26355;45.528;9.234;2022-09-09T08:27:23;26.10;99.90
40670;DHT22;26355;45.528;9.234;2022-09-09T08:29:49;26.20;99.90
40670;DHT22;26355;45.528;9.234;2022-09-09T08:32:15;26.30;99.90
40670;DHT22;26355;45.528;9.234;2022-09-09T08:34:41;26.50;99.90
40670;DHT22;26355;45.528;9.234;2022-09-09T08:37:07;26.60;99.90
40670;DHT22;26355;45.528;9.234;2022-09-09T08:39:33;26.60;99.90
40670;DHT22;26355;45.528;9.234;2022-09-09T08:47:54;26.60;99.90
40670;DHT22;26355;45.528;9.234;2022-09-09T08:50:34;26.50;99.90
40670;DHT22;26355;45.528;9.234;2022-09-09T08:55:50;26.40;99.90
40670;DHT22;26355;45.528;9.234;2022-09-09T08:58:21;26.50;99.90
40670;DHT22;26355;45.528;9.234;2022-09-09T09:09:25;26.60;98.80
40670;DHT22;26355;45.528;9.234;2022-09-09T09:11:57;26.70;99.00
40670;DHT22;26355;45.528;9.234;2022-09-09T09:14:28;26.80;99.30
40670;DHT22;26355;45.528;9.234;2022-09-09T09:17:03;26.90;99.40
40670;DHT22;26355;45.528;9.234;2022-09-09T09:19:31;27.00;99.00
40670;DHT22;26355;45.528;9.234;2022-09-09T09:27:47;27.10;98.30
40670;DHT22;26355;45.528;9.234;2022-09-09T09:30:18;27.10;98.80
40670;DHT22;26355;45.528;9.234;2022-09-09T09:35:25;27.20;98.00
40670;DHT22;26355;45.528;9.234;2022-09-09T09:37:50;27.30;98.40
40670;DHT22;26355;45.528;9.234;2022-09-09T09:40:19;27.30;98.40
40670;DHT22;26355;45.528;9.234;2022-09-09T09:42:53;27.30;98.20
40670;DHT22;26355;45.528;9.234;2022-09-09T09:48:11;27.10;98.10
40670;DHT22;26355;45.528;9.234;2022-09-09T09:53:38;27.00;98.40
40670;DHT22;26355;45.528;9.234;2022-09-09T09:56:07;27.00;98.60
40670;DHT22;26355;45.528;9.234;2022-09-09T09:58:48;27.00;98.40
40670;DHT22;26355;45.528;9.234;2022-09-09T10:01:28;27.00;98.40
40670;DHT22;26355;45.528;9.234;2022-09-09T10:03:59;27.20;98.40
40670;DHT22;26355;45.528;9.234;2022-09-09T10:06:36;27.20;98.50
40670;DHT22;26355;45.528;9.234;2022-09-09T10:09:17;27.20;98.30
40670;DHT22;26355;45.528;9.234;2022-09-09T10:17:23;27.50;98.10
40670;DHT22;26355;45.528;9.234;2022-09-09T10:20:04;27.60;98.30
40670;DHT22;26355;45.528;9.234;2022-09-09T10:22:36;27.70;97.60
40670;DHT22;26355;45.528;9.234;2022-09-09T10:25:33;27.60;97.60
40670;DHT22;26355;45.528;9.234;2022-09-09T10:28:33;27.50;96.90
40670;DHT22;26355;45.528;9.234;2022-09-09T10:36:25;27.80;96.40
40670;DHT22;26355;45.528;9.234;2022-09-09T10:39:03;27.80;96.60
40670;DHT22;26355;45.528;9.234;2022-09-09T10:41:44;27.90;96.80
40670;DHT22;26355;45.528;9.234;2022-09-09T11:00:18;28.00;96.50
40670;DHT22;26355;45.528;9.234;2022-09-09T11:02:51;28.10;96.20
40670;DHT22;26355;45.528;9.234;2022-09-09T11:08:14;28.20;96.30
40670;DHT22;26355;45.528;9.234;2022-09-09T11:16:34;28.40;96.20
40670;DHT22;26355;45.528;9.234;2022-09-09T11:19:14;28.60;95.70
40670;DHT22;26355;45.528;9.234;2022-09-09T11:21:47;28.70;95.60
40670;DHT22;26355;45.528;9.234;2022-09-09T11:24:35;28.80;96.00
40670;DHT22;26355;45.528;9.234;2022-09-09T11:29:45;28.90;95.80
40670;DHT22;26355;45.528;9.234;2022-09-09T11:38:27;29.30;95.60
40670;DHT22;26355;45.528;9.234;2022-09-09T11:41:01;29.30;95.00
40670;DHT22;26355;45.528;9.234;2022-09-09T11:43:41;29.20;95.40
40670;DHT22;26355;45.528;9.234;2022-09-09T11:46:08;29.30;95.50
40670;DHT22;26355;45.528;9.234;2022-09-09T11:48:38;29.30;95.50
40670;DHT22;26355;45.528;9.234;2022-09-09T11:51:09;29.30;95.50
40670;DHT22;26355;45.528;9.234;2022-09-09T11:56:41;29.20;95.20
40670;DHT22;26355;45.528;9.234;2022-09-09T11:59:26;29.20;95.10
40670;DHT22;26355;45.528;9.234;2022-09-09T12:02:10;29.10;95.10
40670;DHT22;26355;45.528;9.234;2022-09-09T12:04:46;29.20;95.30
40670;DHT22;26355;45.528;9.234;2022-09-09T12:07:38;29.10;95.60
40670;DHT22;26355;45.528;9.234;2022-09-09T12:12:35;29.10;95.50
40670;DHT22;26355;45.528;9.234;2022-09-09T12:17:44;29.10;95.60
40670;DHT22;26355;45.528;9.234;2022-09-09T12:22:55;28.60;95.60
40670;DHT22;26355;45.528;9.234;2022-09-09T12:28:14;28.70;95.40
40670;DHT22;26355;45.528;9.234;2022-09-09T12:30:46;28.70;95.40
40670;DHT22;26355;45.528;9.234;2022-09-09T12:33:18;28.90;95.60
40670;DHT22;26355;45.528;9.234;2022-09-09T12:35:47;28.90;95.40
40670;DHT22;26355;45.528;9.234;2022-09-09T12:38:43;29.00;95.20
40670;DHT22;26355;45.528;9.234;2022-09-09T12:41:25;29.10;95.30
40670;DHT22;26355;45.528;9.234;2022-09-09T12:43:51;29.10;94.90
40670;DHT22;26355;45.528;9.234;2022-09-09T12:46:44;29.10;95.30
40670;DHT22;26355;45.528;9.234;2022-09-09T12:52:01;29.20;95.00
40670;DHT22;26355;45.528;9.234;2022-09-09T12:54:28;29.20;95.10
40670;DHT22;26355;45.528;9.234;2022-09-09T12:56:54;29.20;95.10
40670;DHT22;26355;45.528;9.234;2022-09-09T12:59:25;29.40;94.90
40670;DHT22;26355;45.528;9.234;2022-09-09T13:01:58;29.30;94.70
40670;DHT22;26355;45.528;9.234;2022-09-09T13:04:24;29.20;94.40
40670;DHT22;26355;45.528;9.234;2022-09-09T13:06:50;29.10;94.70
40670;DHT22;26355;45.528;9.234;2022-09-09T13:09:17;29.20;94.60
40670;DHT22;26355;45.528;9.234;2022-09-09T13:11:48;29.10;94.50
40670;DHT22;26355;45.528;9.234;2022-09-09T13:14:29;29.20;94.90
40670;DHT22;26355;45.528;9.234;2022-09-09T13:16:57;29.20;94.60
40670;DHT22;26355;45.528;9.234;2022-09-09T13:19:23;29.30;94.80
40670;DHT22;26355;45.528;9.234;2022-09-09T13:21:53;29.40;94.70
40670;DHT22;26355;45.528;9.234;2022-09-09T13:24:33;29.50;94.20
40670;DHT22;26355;45.528;9.234;2022-09-09T13:27:02;29.40;93.30
40670;DHT22;26355;45.528;9.234;2022-09-09T13:29:30;29.40;93.70
40670;DHT22;26355;45.528;9.234;2022-09-09T13:32:07;29.40;94.00
40670;DHT22;26355;45.528;9.234;2022-09-09T13:34:38;29.40;93.30
40670;DHT22;26355;45.528;9.234;2022-09-09T13:37:05;29.50;93.80
40670;DHT22;26355;45.528;9.234;2022-09-09T13:39:36;29.40;93.60
40670;DHT22;26355;45.528;9.234;2022-09-09T13:42:03;29.50;93.70
40670;DHT22;26355;45.528;9.234;2022-09-09T13:44:33;29.50;93.80
40670;DHT22;26355;45.528;9.234;2022-09-09T13:47:20;29.50;93.60
40670;DHT22;26355;45.528;9.234;2022-09-09T13:49:48;29.50;93.60
40670;DHT22;26355;45.528;9.234;2022-09-09T13:52:15;29.40;93.70
40670;DHT22;26355;45.528;9.234;2022-09-09T13:54:43;29.40;93.60
40670;DHT22;26355;45.528;9.234;2022-09-09T13:57:21;29.30;93.60
40670;DHT22;26355;45.528;9.234;2022-09-09T13:59:47;29.30;92.70
40670;DHT22;26355;45.528;9.234;2022-09-09T14:02:13;29.20;92.60
40670;DHT22;26355;45.528;9.234;2022-09-09T14:04:39;29.10;92.80
40670;DHT22;26355;45.528;9.234;2022-09-09T14:07:11;29.10;92.90
40670;DHT22;26355;45.528;9.234;2022-09-09T14:09:37;29.20;93.00
40670;DHT22;26355;45.528;9.234;2022-09-09T14:12:03;29.30;92.90
40670;DHT22;26355;45.528;9.234;2022-09-09T14:14:29;29.40;93.10
40670;DHT22;26355;45.528;9.234;2022-09-09T14:16:55;29.40;93.00
40670;DHT22;26355;45.528;9.234;2022-09-09T14:19:21;29.60;93.10
40670;DHT22;26355;45.528;9.234;2022-09-09T14:21:46;29.60;92.80
40670;DHT22;26355;45.528;9.234;2022-09-09T14:24:12;29.80;92.80
40670;DHT22;26355;45.528;9.234;2022-09-09T14:26:37;29.60;92.60
40670;DHT22;26355;45.528;9.234;2022-09-09T14:29:03;29.70;93.10
40670;DHT22;26355;45.528;9.234;2022-09-09T14:31:29;29.70;92.70
40670;DHT22;26355;45.528;9.234;2022-09-09T14:33:54;29.70;92.80
40670;DHT22;26355;45.528;9.234;2022-09-09T14:36:20;29.80;93.10
40670;DHT22;26355;45.528;9.234;2022-09-09T14:38:46;29.80;92.60
40670;DHT22;26355;45.528;9.234;2022-09-09T14:41:15;29.90;92.80
40670;DHT22;26355;45.528;9.234;2022-09-09T14:43:44;29.90;92.40
40670;DHT22;26355;45.528;9.234;2022-09-09T14:46:17;30.00;92.50
40670;DHT22;26355;45.528;9.234;2022-09-09T14:48:43;29.90;92.20
40670;DHT22;26355;45.528;9.234;2022-09-09T14:51:19;30.00;92.40
40670;DHT22;26355;45.528;9.234;2022-09-09T14:53:46;29.70;92.50
40670;DHT22;26355;45.528;9.234;2022-09-09T14:56:14;29.50;92.30
40670;DHT22;26355;45.528;9.234;2022-09-09T14:58:40;29.40;92.50
40670;DHT22;26355;45.528;9.234;2022-09-09T15:01:11;29.30;92.50
40670;DHT22;26355;45.528;9.234;2022-09-09T15:03:39;29.20;92.30
40670;DHT22;26355;45.528;9.234;2022-09-09T15:06:13;29.30;92.50
40670;DHT22;26355;45.528;9.234;2022-09-09T15:08:41;29.20;92.60
40670;DHT22;26355;45.528;9.234;2022-09-09T15:11:07;29.00;92.50
40670;DHT22;26355;45.528;9.234;2022-09-09T15:13:34;29.00;92.60
40670;DHT22;26355;45.528;9.234;2022-09-09T15:16:25;29.00;92.60
40670;DHT22;26355;45.528;9.234;2022-09-09T15:18:53;29.10;92.70
40670;DHT22;26355;45.528;9.234;2022-09-09T15:21:21;29.20;92.90
40670;DHT22;26355;45.528;9.234;2022-09-09T15:23:48;29.10;92.60
40670;DHT22;26355;45.528;9.234;2022-09-09T15:26:14;29.10;92.60
40670;DHT22;26355;45.528;9.234;2022-09-09T15:28:41;29.10;92.50
40670;DHT22;26355;45.528;9.234;2022-09-09T15:31:13;29.10;92.30
40670;DHT22;26355;45.528;9.234;2022-09-09T15:33:58;29.10;92.30
40670;DHT22;26355;45.528;9.234;2022-09-09T15:36:38;29.20;92.30
40670;DHT22;26355;45.528;9.234;2022-09-09T15:39:09;29.30;92.50
40670;DHT22;26355;45.528;9.234;2022-09-09T15:41:38;29.30;92.30
40670;DHT22;26355;45.528;9.234;2022-09-09T15:44:05;29.40;92.20
40670;DHT22;26355;45.528;9.234;2022-09-09T15:46:34;29.40;91.90
40670;DHT22;26355;45.528;9.234;2022-09-09T15:49:17;29.40;92.10
40670;DHT22;26355;45.528;9.234;2022-09-09T15:51:45;29.30;91.90
40670;DHT22;26355;45.528;9.234;2022-09-09T15:54:16;29.30;92.30
40670;DHT22;26355;45.528;9.234;2022-09-09T15:56:43;29.30;92.20
40670;DHT22;26355;45.528;9.234;2022-09-09T15:59:09;29.30;92.00
40670;DHT22;26355;45.528;9.234;2022-09-09T16:01:35;29.30;91.80
40670;DHT22;26355;45.528;9.234;2022-09-09T16:04:01;29.30;91.70
40670;DHT22;26355;45.528;9.234;2022-09-09T16:06:28;29.20;91.80
40670;DHT22;26355;45.528;9.234;2022-09-09T16:08:56;29.20;91.70
40670;DHT22;26355;45.528;9.234;2022-09-09T16:11:27;29.10;91.70
40670;DHT22;26355;45.528;9.234;2022-09-09T16:13:54;29.10;91.50
40670;DHT22;26355;45.528;9.234;2022-09-09T16:16:22;29.10;91.50
40670;DHT22;26355;45.528;9.234;2022-09-09T16:18:50;29.20;91.50
40670;DHT22;26355;45.528;9.234;2022-09-09T16:21:25;29.20;91.90
40670;DHT22;26355;45.528;9.234;2022-09-09T16:23:55;29.20;91.30
40670;DHT22;26355;45.528;9.234;2022-09-09T16:26:21;29.20;91.30
40670;DHT22;26355;45.528;9.234;2022-09-09T16:28:47;29.20;91.30
40670;DHT22;26355;45.528;9.234;2022-09-09T16:31:16;29.20;91.30
40670;DHT22;26355;45.528;9.234;2022-09-09T16:33:42;29.20;91.30
40670;DHT22;26355;45.528;9.234;2022-09-09T16:36:14;29.20;91.40
40670;DHT22;26355;45.528;9.234;2022-09-09T16:38:40;29.20;91.50
40670;DHT22;26355;45.528;9.234;2022-09-09T16:41:06;29.10;91.50
40670;DHT22;26355;45.528;9.234;2022-09-09T16:43:33;29.10;91.60
40670;DHT22;26355;45.528;9.234;2022-09-09T16:45:59;29.10;91.60
40670;DHT22;26355;45.528;9.234;2022-09-09T16:48:32;29.00;91.60
40670;DHT22;26355;45.528;9.234;2022-09-09T16:51:06;29.10;91.70
40670;DHT22;26355;45.528;9.234;2022-09-09T16:53:33;29.10;91.60
40670;DHT22;26355;45.528;9.234;2022-09-09T16:56:07;29.10;91.60
40670;DHT22;26355;45.528;9.234;2022-09-09T16:58:34;29.10;91.60
40670;DHT22;26355;45.528;9.234;2022-09-09T17:01:00;29.10;91.60
40670;DHT22;26355;45.528;9.234;2022-09-09T17:03:27;29.10;91.60
40670;DHT22;26355;45.528;9.234;2022-09-09T17:05:53;29.10;91.50
40670;DHT22;26355;45.528;9.234;2022-09-09T17:08:18;29.10;91.50
40670;DHT22;26355;45.528;9.234;2022-09-09T17:10:44;29.10;91.50
40670;DHT22;26355;45.528;9.234;2022-09-09T17:13:10;29.00;91.40
40670;DHT22;26355;45.528;9.234;2022-09-09T17:15:41;29.10;91.50
40670;DHT22;26355;45.528;9.234;2022-09-09T17:18:11;29.10;91.60
40670;DHT22;26355;45.528;9.234;2022-09-09T17:20:41;29.00;91.70
40670;DHT22;26355;45.528;9.234;2022-09-09T17:23:08;29.00;91.80
40670;DHT22;26355;45.528;9.234;2022-09-09T17:25:35;29.00;91.90
40670;DHT22;26355;45.528;9.234;2022-09-09T17:28:01;29.00;91.90
40670;DHT22;26355;45.528;9.234;2022-09-09T17:30:30;28.90;91.80
40670;DHT22;26355;45.528;9.234;2022-09-09T17:32:56;28.90;92.00
40670;DHT22;26355;45.528;9.234;2022-09-09T17:35:22;28.90;92.00
40670;DHT22;26355;45.528;9.234;2022-09-09T17:37:48;28.90;91.90
40670;DHT22;26355;45.528;9.234;2022-09-09T17:40:13;28.80;91.90
40670;DHT22;26355;45.528;9.234;2022-09-09T17:42:39;28.80;91.90
40670;DHT22;26355;45.528;9.234;2022-09-09T17:45:06;28.80;92.00
40670;DHT22;26355;45.528;9.234;2022-09-09T17:47:32;28.80;92.00
40670;DHT22;26355;45.528;9.234;2022-09-09T17:49:57;28.70;92.10